Time,TemperatureF,DewpointF,PressureIn,WindDirection,WindDirectionDegrees,WindSpeedMPH,WindSpeedGustMPH,Humidity,HourlyPrecipIn,Conditions,Clouds,dailyrainin,SolarRadiationWatts/m^2,SoftwareType,DateUTC
2013-03-22 00:03:00,72.0,67.0,-100.00,WSW,242,4.0,10.0,83,0.00,,,0.02,0.000000,,2013-03-22 10:03:00,
2013-03-22 00:12:00,72.0,67.0,-100.00,WSW,242,4.0,10.0,83,0.00,,,0.02,0.000000,,2013-03-22 10:12:00,
2013-03-22 00:22:00,72.0,67.0,-100.00,WSW,242,4.0,10.0,83,0.00,,,0.02,0.000000,,2013-03-22 10:22:00,
2013-03-22 00:32:00,72.0,67.0,-100.00,WSW,242,4.0,10.0,83,0.00,,,0.02,0.000000,,2013-03-22 10:32:00,
2013-03-22 01:02:00,72.0,68.0,-100.00,SSW,197,6.0,16.0,86,0.00,,,0.02,0.000000,,2013-03-22 11:02:00,
2013-03-22 01:12:00,72.0,68.0,-100.00,SSW,197,6.0,16.0,86,0.00,,,0.02,0.000000,,2013-03-22 11:12:00,
2013-03-22 01:22:00,72.0,68.0,-100.00,SSW,197,6.0,16.0,86,0.00,,,0.02,0.000000,,2013-03-22 11:22:00,
2013-03-22 01:32:00,72.0,68.0,-100.00,SSW,197,6.0,16.0,86,0.00,,,0.02,0.000000,,2013-03-22 11:32:00,
2013-03-22 02:02:00,70.0,67.0,-100.00,SSE,159,5.0,12.0,89,0.00,,,0.02,0.000000,,2013-03-22 12:02:00,
2013-03-22 02:12:00,70.0,67.0,-100.00,SSE,159,5.0,12.0,89,0.00,,,0.02,0.000000,,2013-03-22 12:12:00,
2013-03-22 02:22:00,70.0,67.0,-100.00,SSE,159,5.0,12.0,89,0.00,,,0.02,0.000000,,2013-03-22 12:22:00,
2013-03-22 02:32:00,70.0,67.0,-100.00,SSE,159,5.0,12.0,89,0.00,,,0.02,0.000000,,2013-03-22 12:32:00,
2013-03-22 03:02:00,69.0,65.0,-100.00,NE,49,1.0,9.0,88,0.00,,,0.02,0.000000,,2013-03-22 13:02:00,
2013-03-22 03:12:00,69.0,65.0,-100.00,NE,49,1.0,9.0,88,0.00,,,0.02,0.000000,,2013-03-22 13:12:00,
2013-03-22 03:22:00,69.0,65.0,-100.00,NE,49,1.0,9.0,88,0.00,,,0.02,0.000000,,2013-03-22 13:22:00,
2013-03-22 03:32:00,69.0,65.0,-100.00,NE,49,1.0,9.0,88,0.00,,,0.02,0.000000,,2013-03-22 13:32:00,
2013-03-22 04:02:00,70.0,66.0,-100.00,SSW,193,4.0,9.0,88,0.00,,,0.02,0.000000,,2013-03-22 14:02:00,
2013-03-22 04:12:00,70.0,66.0,-100.00,SSW,193,4.0,9.0,88,0.00,,,0.02,0.000000,,2013-03-22 14:12:00,
2013-03-22 04:22:00,70.0,66.0,-100.00,SSW,193,4.0,9.0,88,0.00,,,0.02,0.000000,,2013-03-22 14:22:00,
2013-03-22 04:31:00,70.0,66.0,-100.00,SSW,193,4.0,9.0,88,0.00,,,0.02,0.000000,,2013-03-22 14:31:00,
2013-03-22 05:02:00,71.0,65.0,-100.00,SSE,157,4.0,10.0,82,0.00,,,0.02,0.000000,,2013-03-22 15:02:00,
2013-03-22 05:12:00,71.0,65.0,-100.00,SSE,157,4.0,10.0,82,0.00,,,0.02,0.000000,,2013-03-22 15:12:00,
2013-03-22 05:22:00,71.0,65.0,-100.00,SSE,157,4.0,10.0,82,0.00,,,0.02,0.000000,,2013-03-22 15:22:00,
2013-03-22 05:32:00,71.0,65.0,-100.00,SSE,157,4.0,10.0,82,0.00,,,0.02,0.000000,,2013-03-22 15:32:00,
2013-03-22 06:02:00,70.0,66.0,-100.00,South,181,7.0,13.0,88,0.00,,,0.02,0.000000,,2013-03-22 16:02:00,
2013-03-22 06:13:00,70.0,66.0,-100.00,South,181,7.0,13.0,88,0.00,,,0.02,0.000000,,2013-03-22 16:13:00,
2013-03-22 06:22:00,70.0,66.0,-100.00,South,181,7.0,13.0,88,0.00,,,0.02,0.000000,,2013-03-22 16:22:00,
2013-03-22 06:32:00,70.0,66.0,-100.00,South,181,7.0,13.0,88,0.00,,,0.02,0.000000,,2013-03-22 16:32:00,
2013-03-22 07:03:00,69.0,66.0,-100.00,South,177,4.0,10.0,89,0.00,,,0.02,0.000000,,2013-03-22 17:03:00,
2013-03-22 07:12:00,69.0,66.0,-100.00,South,177,4.0,10.0,89,0.00,,,0.02,0.000000,,2013-03-22 17:12:00,
2013-03-22 07:22:00,69.0,66.0,-100.00,South,177,4.0,10.0,89,0.00,,,0.02,0.000000,,2013-03-22 17:22:00,
2013-03-22 07:32:00,69.0,66.0,-100.00,South,177,4.0,10.0,89,0.00,,,0.02,0.000000,,2013-03-22 17:32:00,
2013-03-22 08:02:00,71.0,67.0,-100.00,SSE,165,9.0,14.0,88,0.00,,,0.02,0.000000,,2013-03-22 18:02:00,
2013-03-22 08:12:00,71.0,67.0,-100.00,SSE,165,9.0,14.0,88,0.00,,,0.02,0.000000,,2013-03-22 18:12:00,
2013-03-22 08:22:00,71.0,67.0,-100.00,SSE,165,9.0,14.0,88,0.00,,,0.02,0.000000,,2013-03-22 18:22:00,
2013-03-22 08:32:00,71.0,67.0,-100.00,SSE,165,9.0,14.0,88,0.00,,,0.02,0.000000,,2013-03-22 18:32:00,
2013-03-22 09:02:00,72.0,66.0,-100.00,SSE,152,2.0,14.0,82,0.00,,,0.01,21.000000,,2013-03-22 19:02:00,
2013-03-22 09:12:00,72.0,66.0,-100.00,SSE,152,2.0,14.0,82,0.00,,,0.01,21.000000,,2013-03-22 19:12:00,
2013-03-22 09:22:00,72.0,66.0,-100.00,SSE,152,2.0,14.0,82,0.00,,,0.01,21.000000,,2013-03-22 19:22:00,
2013-03-22 09:32:00,72.0,66.0,-100.00,SSE,152,2.0,14.0,82,0.00,,,0.01,21.000000,,2013-03-22 19:32:00,
2013-03-22 10:02:00,73.0,66.0,-100.00,South,189,6.0,11.0,79,0.00,,,0.01,77.000000,,2013-03-22 20:02:00,
2013-03-22 10:12:00,73.0,66.0,-100.00,South,189,6.0,11.0,79,0.00,,,0.01,77.000000,,2013-03-22 20:12:00,
2013-03-22 10:22:00,73.0,66.0,-100.00,South,189,6.0,11.0,79,0.00,,,0.01,77.000000,,2013-03-22 20:22:00,
2013-03-22 10:32:00,73.0,66.0,-100.00,South,189,6.0,11.0,79,0.00,,,0.01,77.000000,,2013-03-22 20:32:00,
2013-03-22 11:02:00,76.0,66.0,-100.00,SW,228,6.0,15.0,71,0.00,,,0.01,166.000000,,2013-03-22 21:02:00,
2013-03-22 11:12:00,76.0,66.0,-100.00,SW,228,6.0,15.0,71,0.00,,,0.01,166.000000,,2013-03-22 21:12:00,
2013-03-22 11:22:00,76.0,66.0,-100.00,SW,228,6.0,15.0,71,0.00,,,0.01,166.000000,,2013-03-22 21:22:00,
2013-03-22 11:32:00,76.0,66.0,-100.00,SW,228,6.0,15.0,71,0.00,,,0.01,166.000000,,2013-03-22 21:32:00,
2013-03-22 12:02:00,75.0,68.0,-100.00,ESE,116,2.0,11.0,79,0.00,,,0.01,309.000000,,2013-03-22 22:02:00,
2013-03-22 12:12:00,75.0,68.0,-100.00,ESE,116,2.0,11.0,79,0.00,,,0.01,309.000000,,2013-03-22 22:12:00,
2013-03-22 12:22:00,75.0,68.0,-100.00,ESE,116,2.0,11.0,79,0.00,,,0.01,309.000000,,2013-03-22 22:22:00,
2013-03-22 12:32:00,75.0,68.0,-100.00,ESE,116,2.0,11.0,79,0.00,,,0.01,309.000000,,2013-03-22 22:32:00,
2013-03-22 13:02:00,71.0,66.0,-100.00,South,176,4.0,12.0,85,0.00,,,0.01,387.000000,,2013-03-22 23:02:00,
2013-03-22 13:12:00,71.0,66.0,-100.00,South,176,4.0,12.0,85,0.00,,,0.01,387.000000,,2013-03-22 23:12:00,
2013-03-22 13:22:00,71.0,66.0,-100.00,South,176,4.0,12.0,85,0.00,,,0.01,387.000000,,2013-03-22 23:22:00,
2013-03-22 13:32:00,71.0,66.0,-100.00,South,176,4.0,12.0,85,0.00,,,0.01,387.000000,,2013-03-22 23:32:00,
2013-03-22 14:02:00,70.0,66.0,-100.00,WSW,248,1.0,10.0,86,0.00,,,0.01,359.000000,,2013-03-23 00:02:00,
2013-03-22 14:12:00,70.0,66.0,-100.00,WSW,248,1.0,10.0,86,0.00,,,0.01,359.000000,,2013-03-23 00:12:00,
2013-03-22 14:23:00,70.0,66.0,-100.00,WSW,248,1.0,10.0,86,0.00,,,0.01,359.000000,,2013-03-23 00:23:00,
2013-03-22 14:32:00,70.0,66.0,-100.00,WSW,248,1.0,10.0,86,0.00,,,0.01,359.000000,,2013-03-23 00:32:00,
2013-03-22 15:03:00,75.0,64.0,-100.00,ENE,58,2.0,6.0,68,0.00,,,0.01,370.000000,,2013-03-23 01:03:00,
2013-03-22 15:12:00,75.0,64.0,-100.00,ENE,58,2.0,6.0,68,0.00,,,0.01,370.000000,,2013-03-23 01:12:00,
2013-03-22 15:22:00,75.0,64.0,-100.00,ENE,58,2.0,6.0,68,0.00,,,0.01,370.000000,,2013-03-23 01:22:00,
2013-03-22 15:31:00,75.0,64.0,-100.00,ENE,58,2.0,6.0,68,0.00,,,0.01,370.000000,,2013-03-23 01:31:00,
2013-03-22 16:02:00,75.0,64.0,-100.00,SSW,200,3.0,9.0,69,0.00,,,0.01,554.000000,,2013-03-23 02:02:00,
2013-03-22 16:12:00,75.0,64.0,-100.00,SSW,200,3.0,9.0,69,0.00,,,0.01,554.000000,,2013-03-23 02:12:00,
2013-03-22 16:22:00,75.0,64.0,-100.00,SSW,200,3.0,9.0,69,0.00,,,0.01,554.000000,,2013-03-23 02:22:00,
2013-03-22 16:31:00,75.0,64.0,-100.00,SSW,200,3.0,9.0,69,0.00,,,0.01,554.000000,,2013-03-23 02:31:00,
2013-03-22 17:02:00,71.0,63.0,-100.00,SW,215,5.0,10.0,77,0.00,,,0.01,431.000000,,2013-03-23 03:02:00,
2013-03-22 17:12:00,71.0,63.0,-100.00,SW,215,5.0,10.0,77,0.00,,,0.01,431.000000,,2013-03-23 03:12:00,
2013-03-22 17:22:00,71.0,63.0,-100.00,SW,215,5.0,10.0,77,0.00,,,0.01,431.000000,,2013-03-23 03:22:00,
2013-03-22 17:32:00,71.0,63.0,-100.00,SW,215,5.0,10.0,77,0.00,,,0.01,431.000000,,2013-03-23 03:32:00,
2013-03-22 18:02:00,72.0,65.0,-100.00,SSW,208,1.0,9.0,79,0.00,,,0.01,234.000000,,2013-03-23 04:02:00,
2013-03-22 18:12:00,72.0,65.0,-100.00,SSW,208,1.0,9.0,79,0.00,,,0.01,234.000000,,2013-03-23 04:12:00,
2013-03-22 18:23:00,72.0,65.0,-100.00,SSW,208,1.0,9.0,79,0.00,,,0.01,234.000000,,2013-03-23 04:23:00,
2013-03-22 18:32:00,72.0,65.0,-100.00,SSW,208,1.0,9.0,79,0.00,,,0.01,234.000000,,2013-03-23 04:32:00,
2013-03-22 19:02:00,71.0,66.0,-100.00,SW,216,1.0,4.0,83,0.00,,,0.01,98.000000,,2013-03-23 05:02:00,
2013-03-22 19:12:00,71.0,66.0,-100.00,SW,216,1.0,4.0,83,0.00,,,0.01,98.000000,,2013-03-23 05:12:00,
2013-03-22 19:22:00,71.0,66.0,-100.00,SW,216,1.0,4.0,83,0.00,,,0.01,98.000000,,2013-03-23 05:22:00,
2013-03-22 19:32:00,71.0,66.0,-100.00,SW,216,1.0,4.0,83,0.00,,,0.01,98.000000,,2013-03-23 05:32:00,
2013-03-22 20:02:00,69.0,64.0,-100.00,NNE,17,2.0,5.0,85,0.00,,,0.01,62.000000,,2013-03-23 06:02:00,
2013-03-22 20:12:00,69.0,64.0,-100.00,NNE,17,2.0,5.0,85,0.00,,,0.01,62.000000,,2013-03-23 06:12:00,
2013-03-22 20:22:00,69.0,64.0,-100.00,NNE,17,2.0,5.0,85,0.00,,,0.01,62.000000,,2013-03-23 06:22:00,
2013-03-22 20:31:00,69.0,64.0,-100.00,NNE,17,2.0,5.0,85,0.00,,,0.01,62.000000,,2013-03-23 06:31:00,
2013-03-22 21:02:00,69.0,65.0,-100.00,NNE,25,3.0,5.0,86,0.00,,,0.01,0.000000,,2013-03-23 07:02:00,
2013-03-22 21:12:00,69.0,65.0,-100.00,NNE,25,3.0,5.0,86,0.00,,,0.01,0.000000,,2013-03-23 07:12:00,
2013-03-22 21:22:00,69.0,65.0,-100.00,NNE,25,3.0,5.0,86,0.00,,,0.01,0.000000,,2013-03-23 07:22:00,
2013-03-22 21:32:00,69.0,65.0,-100.00,NNE,25,3.0,5.0,86,0.00,,,0.01,0.000000,,2013-03-23 07:32:00,
2013-03-22 22:02:00,67.0,63.0,-100.00,North,359,3.0,6.0,88,0.04,,,0.05,0.000000,,2013-03-23 08:02:00,
2013-03-22 22:12:00,67.0,63.0,-100.00,North,359,3.0,6.0,88,0.04,,,0.05,0.000000,,2013-03-23 08:12:00,
2013-03-22 22:22:00,67.0,63.0,-100.00,North,359,3.0,6.0,88,0.04,,,0.05,0.000000,,2013-03-23 08:22:00,
2013-03-22 22:31:00,67.0,63.0,-100.00,North,359,3.0,6.0,88,0.04,,,0.05,0.000000,,2013-03-23 08:31:00,
2013-03-22 23:02:00,66.0,65.0,-100.00,North,7,2.0,7.0,95,0.03,,,0.07,0.000000,,2013-03-23 09:02:00,
2013-03-22 23:12:00,66.0,65.0,-100.00,North,7,2.0,7.0,95,0.03,,,0.07,0.000000,,2013-03-23 09:12:00,
2013-03-22 23:22:00,66.0,65.0,-100.00,North,7,2.0,7.0,95,0.03,,,0.07,0.000000,,2013-03-23 09:22:00,
2013-03-22 23:32:00,66.0,65.0,-100.00,North,7,2.0,7.0,95,0.03,,,0.07,0.000000,,2013-03-23 09:32:00,